Portada
METAR-TAF:

METAR-TAF

Aeropuertos :

Aeropuerto Internacional de Chuuk

Weno, Micronesia

latitud: 07-28N, longitud: 151-51E, altitud: 3 m

Observación

El informe se hizo hace 33 minutos, a las 04:50 UTC
Viento 15 kt del noreste
Temperatura 29°C
Humedad 84%
Presión 1008 hPa
Visibilidad: 24.1 km
Nubes dispersas a una altura de 1400 ft
Nubes dispersas a una altura de 12000 ft
Cielo nuboso a una altura de 28000 ft

METAR: PTKK 200450Z 05015KT 15SM SCT014 SCT120 BKN280 29/26 A2976 RMK SHRAE29 SLP081 T02940264

Hora: 15:23 (05:23 UTC)

Pronóstico

El informe se hizo hace 5 horas y 58 minutos, a las 23:25 UTC
Pronóstico válido del 20 a las 00 UTC al 20 a las 24 UTC
Viento 13 kt del noreste
Visibilidad: 10 km
Escasas nubes a una altura de 1800 ft
Nubes dispersas a una altura de 5000 ft
chaparrones en las proximidades

TAF: PTKK 192325Z 2000/2024 05013KT P6SM VCSH FEW018 SCT050

Observaciones y pronósticos meteorológicos de más de 4000 aeropuertos (mensajes METAR y TAF).

Los puntos amarillos y rojos representan las estaciones disponibles.

Ponga el ratón en el punto deseado para ver el nombre de la estación.

Haga clic para ver las observaciones y los pronósticos meteorológicos.

Para cambiar el mapa : haga clic en los botones verdes con una cruz de color negro para hacer un zoom, en el botón verde con un guión para alejar o en las flechas verdes para mapas adyacentes.


METAR-TAF: